sensor_id;sensor_type;location;lat;lon;timestamp;P1;durP1;ratioP1;P2;durP2;ratioP2
5247;SDS011;2644;52.420;13.580;2022-09-25T00:00:24;7.03;;;5.63;;
5247;SDS011;2644;52.420;13.580;2022-09-25T00:01:26;7.47;;;6.00;;
5247;SDS011;2644;52.420;13.580;2022-09-25T00:02:29;7.53;;;5.60;;
5247;SDS011;2644;52.420;13.580;2022-09-25T00:03:31;6.78;;;5.45;;
5247;SDS011;2644;52.420;13.580;2022-09-25T00:04:35;7.43;;;5.45;;
5247;SDS011;2644;52.420;13.580;2022-09-25T00:05:38;7.60;;;5.63;;
5247;SDS011;2644;52.420;13.580;2022-09-25T00:06:42;6.15;;;5.35;;
5247;SDS011;2644;52.420;13.580;2022-09-25T00:07:48;7.40;;;5.88;;
5247;SDS011;2644;52.420;13.580;2022-09-25T00:08:50;6.20;;;5.05;;
5247;SDS011;2644;52.420;13.580;2022-09-25T00:09:53;7.05;;;5.60;;
5247;SDS011;2644;52.420;13.580;2022-09-25T00:10:58;6.40;;;5.30;;
5247;SDS011;2644;52.420;13.580;2022-09-25T00:12:01;7.75;;;5.28;;
5247;SDS011;2644;52.420;13.580;2022-09-25T00:13:03;6.22;;;5.35;;
5247;SDS011;2644;52.420;13.580;2022-09-25T00:14:08;6.78;;;5.25;;
5247;SDS011;2644;52.420;13.580;2022-09-25T00:15:10;9.70;;;5.60;;
5247;SDS011;2644;52.420;13.580;2022-09-25T00:16:13;7.40;;;5.05;;
5247;SDS011;2644;52.420;13.580;2022-09-25T00:17:17;5.07;;;4.57;;
5247;SDS011;2644;52.420;13.580;2022-09-25T00:18:21;7.60;;;5.30;;
5247;SDS011;2644;52.420;13.580;2022-09-25T00:19:39;6.80;;;5.80;;
5247;SDS011;2644;52.420;13.580;2022-09-25T00:20:58;7.20;;;5.32;;
5247;SDS011;2644;52.420;13.580;2022-09-25T00:22:02;7.80;;;5.63;;
5247;SDS011;2644;52.420;13.580;2022-09-25T00:23:05;8.68;;;5.47;;
5247;SDS011;2644;52.420;13.580;2022-09-25T00:24:09;9.10;;;5.53;;
5247;SDS011;2644;52.420;13.580;2022-09-25T00:25:14;7.90;;;6.10;;
5247;SDS011;2644;52.420;13.580;2022-09-25T00:26:18;5.78;;;5.10;;
5247;SDS011;2644;52.420;13.580;2022-09-25T00:27:20;6.93;;;5.72;;
5247;SDS011;2644;52.420;13.580;2022-09-25T00:28:23;7.95;;;5.65;;
5247;SDS011;2644;52.420;13.580;2022-09-25T00:29:25;7.63;;;6.35;;
5247;SDS011;2644;52.420;13.580;2022-09-25T00:30:29;7.60;;;5.43;;
5247;SDS011;2644;52.420;13.580;2022-09-25T00:31:31;7.45;;;5.72;;
5247;SDS011;2644;52.420;13.580;2022-09-25T00:32:34;9.00;;;6.03;;
5247;SDS011;2644;52.420;13.580;2022-09-25T00:33:36;6.90;;;5.65;;
5247;SDS011;2644;52.420;13.580;2022-09-25T00:34:39;7.40;;;5.70;;
5247;SDS011;2644;52.420;13.580;2022-09-25T00:35:44;7.40;;;5.70;;
5247;SDS011;2644;52.420;13.580;2022-09-25T00:36:47;6.20;;;5.15;;
5247;SDS011;2644;52.420;13.580;2022-09-25T00:37:50;7.88;;;5.93;;
5247;SDS011;2644;52.420;13.580;2022-09-25T00:38:53;7.40;;;5.55;;
5247;SDS011;2644;52.420;13.580;2022-09-25T00:39:57;7.78;;;5.95;;
5247;SDS011;2644;52.420;13.580;2022-09-25T00:40:59;7.07;;;5.70;;
5247;SDS011;2644;52.420;13.580;2022-09-25T00:42:02;8.77;;;5.60;;
5247;SDS011;2644;52.420;13.580;2022-09-25T00:43:04;7.35;;;5.80;;
5247;SDS011;2644;52.420;13.580;2022-09-25T00:45:52;8.27;;;5.75;;
5247;SDS011;2644;52.420;13.580;2022-09-25T00:46:55;7.07;;;5.95;;
5247;SDS011;2644;52.420;13.580;2022-09-25T00:47:58;9.10;;;6.35;;
5247;SDS011;2644;52.420;13.580;2022-09-25T00:49:04;7.45;;;6.35;;
5247;SDS011;2644;52.420;13.580;2022-09-25T00:50:15;7.22;;;6.22;;
5247;SDS011;2644;52.420;13.580;2022-09-25T00:51:24;7.70;;;6.25;;
5247;SDS011;2644;52.420;13.580;2022-09-25T00:52:30;8.25;;;6.20;;
5247;SDS011;2644;52.420;13.580;2022-09-25T00:53:34;8.48;;;6.30;;
5247;SDS011;2644;52.420;13.580;2022-09-25T00:54:40;7.40;;;6.40;;
5247;SDS011;2644;52.420;13.580;2022-09-25T00:55:46;9.25;;;6.43;;
5247;SDS011;2644;52.420;13.580;2022-09-25T00:56:49;9.48;;;6.88;;
5247;SDS011;2644;52.420;13.580;2022-09-25T00:57:54;9.43;;;6.30;;
5247;SDS011;2644;52.420;13.580;2022-09-25T00:58:57;8.68;;;6.65;;
5247;SDS011;2644;52.420;13.580;2022-09-25T01:00:03;9.32;;;6.57;;
5247;SDS011;2644;52.420;13.580;2022-09-25T01:01:08;8.20;;;6.50;;
5247;SDS011;2644;52.420;13.580;2022-09-25T01:02:12;9.00;;;6.55;;
5247;SDS011;2644;52.420;13.580;2022-09-25T01:03:20;9.15;;;6.38;;
5247;SDS011;2644;52.420;13.580;2022-09-25T01:04:24;8.35;;;6.63;;
5247;SDS011;2644;52.420;13.580;2022-09-25T01:05:29;9.48;;;6.85;;
5247;SDS011;2644;52.420;13.580;2022-09-25T01:06:34;9.13;;;6.80;;
5247;SDS011;2644;52.420;13.580;2022-09-25T01:07:37;8.65;;;6.05;;
5247;SDS011;2644;52.420;13.580;2022-09-25T01:08:42;8.02;;;6.50;;
5247;SDS011;2644;52.420;13.580;2022-09-25T01:09:46;11.23;;;6.93;;
5247;SDS011;2644;52.420;13.580;2022-09-25T01:10:51;10.82;;;6.65;;
5247;SDS011;2644;52.420;13.580;2022-09-25T01:11:54;10.10;;;7.80;;
5247;SDS011;2644;52.420;13.580;2022-09-25T01:12:56;7.95;;;6.55;;
5247;SDS011;2644;52.420;13.580;2022-09-25T01:14:02;9.48;;;7.00;;
5247;SDS011;2644;52.420;13.580;2022-09-25T01:15:07;11.25;;;6.60;;
5247;SDS011;2644;52.420;13.580;2022-09-25T01:16:12;9.90;;;7.15;;
5247;SDS011;2644;52.420;13.580;2022-09-25T01:17:21;10.05;;;6.95;;
5247;SDS011;2644;52.420;13.580;2022-09-25T01:19:54;8.93;;;6.68;;
5247;SDS011;2644;52.420;13.580;2022-09-25T01:21:13;8.68;;;6.60;;
5247;SDS011;2644;52.420;13.580;2022-09-25T01:22:26;8.38;;;6.60;;
5247;SDS011;2644;52.420;13.580;2022-09-25T01:23:43;11.20;;;7.40;;
5247;SDS011;2644;52.420;13.580;2022-09-25T01:25:04;8.40;;;6.55;;
5247;SDS011;2644;52.420;13.580;2022-09-25T01:26:18;8.75;;;6.50;;
5247;SDS011;2644;52.420;13.580;2022-09-25T01:27:33;8.80;;;6.63;;
5247;SDS011;2644;52.420;13.580;2022-09-25T01:28:48;10.00;;;7.18;;
5247;SDS011;2644;52.420;13.580;2022-09-25T01:29:56;8.52;;;7.10;;
5247;SDS011;2644;52.420;13.580;2022-09-25T01:31:06;9.73;;;7.30;;
5247;SDS011;2644;52.420;13.580;2022-09-25T01:32:17;11.70;;;7.80;;
5247;SDS011;2644;52.420;13.580;2022-09-25T01:33:24;8.68;;;6.40;;
5247;SDS011;2644;52.420;13.580;2022-09-25T01:34:34;11.35;;;7.57;;
5247;SDS011;2644;52.420;13.580;2022-09-25T01:35:42;11.52;;;7.70;;
5247;SDS011;2644;52.420;13.580;2022-09-25T01:36:50;8.80;;;7.15;;
5247;SDS011;2644;52.420;13.580;2022-09-25T01:38:01;10.80;;;7.68;;
5247;SDS011;2644;52.420;13.580;2022-09-25T01:39:13;10.48;;;7.40;;
5247;SDS011;2644;52.420;13.580;2022-09-25T01:40:22;9.27;;;6.95;;
5247;SDS011;2644;52.420;13.580;2022-09-25T01:41:31;9.45;;;6.88;;
5247;SDS011;2644;52.420;13.580;2022-09-25T01:42:41;9.10;;;6.75;;
5247;SDS011;2644;52.420;13.580;2022-09-25T01:43:51;10.70;;;7.05;;
5247;SDS011;2644;52.420;13.580;2022-09-25T01:44:58;8.18;;;6.40;;
5247;SDS011;2644;52.420;13.580;2022-09-25T01:46:06;9.82;;;7.30;;
5247;SDS011;2644;52.420;13.580;2022-09-25T01:47:13;9.27;;;7.65;;
5247;SDS011;2644;52.420;13.580;2022-09-25T01:48:21;11.18;;;7.70;;
5247;SDS011;2644;52.420;13.580;2022-09-25T01:49:28;12.73;;;8.27;;
5247;SDS011;2644;52.420;13.580;2022-09-25T01:50:34;9.15;;;7.15;;
5247;SDS011;2644;52.420;13.580;2022-09-25T01:51:42;14.68;;;8.02;;
5247;SDS011;2644;52.420;13.580;2022-09-25T01:52:50;13.25;;;8.45;;
5247;SDS011;2644;52.420;13.580;2022-09-25T01:53:58;11.13;;;7.55;;
5247;SDS011;2644;52.420;13.580;2022-09-25T01:55:05;11.30;;;7.68;;
5247;SDS011;2644;52.420;13.580;2022-09-25T01:56:13;10.80;;;7.47;;
5247;SDS011;2644;52.420;13.580;2022-09-25T01:57:21;10.90;;;7.75;;
5247;SDS011;2644;52.420;13.580;2022-09-25T01:58:29;11.80;;;7.70;;
5247;SDS011;2644;52.420;13.580;2022-09-25T01:59:36;13.55;;;8.63;;
5247;SDS011;2644;52.420;13.580;2022-09-25T02:00:44;11.07;;;8.15;;
5247;SDS011;2644;52.420;13.580;2022-09-25T02:01:51;9.70;;;7.63;;
5247;SDS011;2644;52.420;13.580;2022-09-25T02:02:59;11.82;;;8.10;;
5247;SDS011;2644;52.420;13.580;2022-09-25T02:04:09;13.80;;;8.38;;
5247;SDS011;2644;52.420;13.580;2022-09-25T02:05:17;9.95;;;7.63;;
5247;SDS011;2644;52.420;13.580;2022-09-25T02:06:23;12.05;;;8.25;;
5247;SDS011;2644;52.420;13.580;2022-09-25T02:07:28;11.18;;;8.00;;
5247;SDS011;2644;52.420;13.580;2022-09-25T02:08:37;11.60;;;8.30;;
5247;SDS011;2644;52.420;13.580;2022-09-25T02:09:44;11.70;;;8.02;;
5247;SDS011;2644;52.420;13.580;2022-09-25T02:10:51;11.27;;;8.02;;
5247;SDS011;2644;52.420;13.580;2022-09-25T02:11:58;10.23;;;7.57;;
5247;SDS011;2644;52.420;13.580;2022-09-25T02:13:06;12.02;;;7.90;;
5247;SDS011;2644;52.420;13.580;2022-09-25T02:14:14;11.30;;;8.10;;
5247;SDS011;2644;52.420;13.580;2022-09-25T02:15:22;10.05;;;7.70;;
5247;SDS011;2644;52.420;13.580;2022-09-25T02:16:32;12.63;;;7.85;;
5247;SDS011;2644;52.420;13.580;2022-09-25T02:17:39;11.48;;;7.75;;
5247;SDS011;2644;52.420;13.580;2022-09-25T02:19:03;13.45;;;8.02;;
5247;SDS011;2644;52.420;13.580;2022-09-25T02:20:24;11.00;;;7.90;;
5247;SDS011;2644;52.420;13.580;2022-09-25T02:21:38;10.88;;;7.90;;
5247;SDS011;2644;52.420;13.580;2022-09-25T02:22:50;11.63;;;7.75;;
5247;SDS011;2644;52.420;13.580;2022-09-25T02:23:55;9.93;;;7.80;;
5247;SDS011;2644;52.420;13.580;2022-09-25T02:25:06;12.27;;;8.75;;
5247;SDS011;2644;52.420;13.580;2022-09-25T02:26:15;13.90;;;8.80;;
5247;SDS011;2644;52.420;13.580;2022-09-25T02:27:23;11.80;;;7.57;;
5247;SDS011;2644;52.420;13.580;2022-09-25T02:28:28;12.80;;;8.00;;
5247;SDS011;2644;52.420;13.580;2022-09-25T02:29:30;12.32;;;8.70;;
5247;SDS011;2644;52.420;13.580;2022-09-25T02:30:34;11.75;;;8.20;;
5247;SDS011;2644;52.420;13.580;2022-09-25T02:31:39;11.75;;;7.85;;
5247;SDS011;2644;52.420;13.580;2022-09-25T02:32:43;10.98;;;8.15;;
5247;SDS011;2644;52.420;13.580;2022-09-25T02:33:46;13.10;;;9.18;;
5247;SDS011;2644;52.420;13.580;2022-09-25T02:34:50;14.80;;;8.57;;
5247;SDS011;2644;52.420;13.580;2022-09-25T02:35:54;11.45;;;8.15;;
5247;SDS011;2644;52.420;13.580;2022-09-25T02:36:56;14.20;;;8.35;;
5247;SDS011;2644;52.420;13.580;2022-09-25T02:37:59;10.15;;;7.80;;
5247;SDS011;2644;52.420;13.580;2022-09-25T02:39:03;11.57;;;8.02;;
5247;SDS011;2644;52.420;13.580;2022-09-25T02:40:08;12.20;;;7.43;;
5247;SDS011;2644;52.420;13.580;2022-09-25T02:41:14;10.60;;;7.43;;
5247;SDS011;2644;52.420;13.580;2022-09-25T02:42:24;13.07;;;8.15;;
5247;SDS011;2644;52.420;13.580;2022-09-25T02:43:36;12.90;;;8.52;;
5247;SDS011;2644;52.420;13.580;2022-09-25T02:44:53;13.90;;;8.55;;
5247;SDS011;2644;52.420;13.580;2022-09-25T02:46:09;17.38;;;10.10;;
5247;SDS011;2644;52.420;13.580;2022-09-25T02:47:19;12.52;;;8.27;;
5247;SDS011;2644;52.420;13.580;2022-09-25T02:48:26;14.18;;;9.48;;
5247;SDS011;2644;52.420;13.580;2022-09-25T02:49:39;12.77;;;8.52;;
5247;SDS011;2644;52.420;13.580;2022-09-25T02:50:50;11.68;;;8.35;;
5247;SDS011;2644;52.420;13.580;2022-09-25T02:52:03;10.15;;;7.60;;
5247;SDS011;2644;52.420;13.580;2022-09-25T02:53:09;13.23;;;8.77;;
5247;SDS011;2644;52.420;13.580;2022-09-25T02:54:20;13.38;;;8.52;;
5247;SDS011;2644;52.420;13.580;2022-09-25T02:55:27;11.70;;;7.72;;
5247;SDS011;2644;52.420;13.580;2022-09-25T02:56:37;10.20;;;8.05;;
5247;SDS011;2644;52.420;13.580;2022-09-25T02:57:44;11.18;;;7.72;;
5247;SDS011;2644;52.420;13.580;2022-09-25T02:58:54;11.45;;;7.60;;
5247;SDS011;2644;52.420;13.580;2022-09-25T03:00:00;10.93;;;7.30;;
5247;SDS011;2644;52.420;13.580;2022-09-25T03:01:09;13.38;;;8.45;;
5247;SDS011;2644;52.420;13.580;2022-09-25T03:02:15;11.05;;;7.78;;
5247;SDS011;2644;52.420;13.580;2022-09-25T03:03:19;11.48;;;7.70;;
5247;SDS011;2644;52.420;13.580;2022-09-25T03:04:24;12.40;;;8.20;;
5247;SDS011;2644;52.420;13.580;2022-09-25T03:05:29;15.77;;;8.05;;
5247;SDS011;2644;52.420;13.580;2022-09-25T03:06:32;10.10;;;7.53;;
5247;SDS011;2644;52.420;13.580;2022-09-25T03:07:35;12.15;;;7.72;;
5247;SDS011;2644;52.420;13.580;2022-09-25T03:08:53;10.05;;;7.65;;
5247;SDS011;2644;52.420;13.580;2022-09-25T03:09:57;10.65;;;7.47;;
5247;SDS011;2644;52.420;13.580;2022-09-25T03:11:00;13.32;;;7.38;;
5247;SDS011;2644;52.420;13.580;2022-09-25T03:12:05;11.18;;;7.40;;
5247;SDS011;2644;52.420;13.580;2022-09-25T03:13:15;10.55;;;7.55;;
5247;SDS011;2644;52.420;13.580;2022-09-25T03:14:19;10.10;;;7.63;;
5247;SDS011;2644;52.420;13.580;2022-09-25T03:15:22;10.63;;;7.93;;
5247;SDS011;2644;52.420;13.580;2022-09-25T03:16:29;11.07;;;7.40;;
5247;SDS011;2644;52.420;13.580;2022-09-25T03:17:35;12.30;;;8.10;;
5247;SDS011;2644;52.420;13.580;2022-09-25T03:18:40;12.68;;;8.23;;
5247;SDS011;2644;52.420;13.580;2022-09-25T03:19:43;12.18;;;8.15;;
5247;SDS011;2644;52.420;13.580;2022-09-25T03:20:45;12.02;;;7.72;;
5247;SDS011;2644;52.420;13.580;2022-09-25T03:21:48;13.52;;;8.15;;
5247;SDS011;2644;52.420;13.580;2022-09-25T03:22:50;10.73;;;7.90;;
5247;SDS011;2644;52.420;13.580;2022-09-25T03:23:53;12.35;;;7.70;;
5247;SDS011;2644;52.420;13.580;2022-09-25T03:24:57;10.80;;;7.93;;
5247;SDS011;2644;52.420;13.580;2022-09-25T03:26:00;10.38;;;7.88;;
5247;SDS011;2644;52.420;13.580;2022-09-25T03:27:02;11.55;;;7.82;;
5247;SDS011;2644;52.420;13.580;2022-09-25T03:28:07;11.50;;;7.55;;
5247;SDS011;2644;52.420;13.580;2022-09-25T03:29:10;11.13;;;7.60;;
5247;SDS011;2644;52.420;13.580;2022-09-25T03:30:15;10.90;;;7.88;;
5247;SDS011;2644;52.420;13.580;2022-09-25T03:31:17;10.15;;;7.40;;
5247;SDS011;2644;52.420;13.580;2022-09-25T03:32:22;9.00;;;7.10;;
5247;SDS011;2644;52.420;13.580;2022-09-25T03:33:25;10.32;;;7.25;;
5247;SDS011;2644;52.420;13.580;2022-09-25T03:34:29;10.10;;;7.25;;
5247;SDS011;2644;52.420;13.580;2022-09-25T03:35:31;14.27;;;8.85;;
5247;SDS011;2644;52.420;13.580;2022-09-25T03:36:34;10.23;;;6.82;;
5247;SDS011;2644;52.420;13.580;2022-09-25T03:37:38;9.02;;;6.47;;
5247;SDS011;2644;52.420;13.580;2022-09-25T03:38:40;9.75;;;7.53;;
5247;SDS011;2644;52.420;13.580;2022-09-25T03:39:44;10.43;;;7.97;;
5247;SDS011;2644;52.420;13.580;2022-09-25T03:40:46;12.90;;;8.50;;
5247;SDS011;2644;52.420;13.580;2022-09-25T03:41:49;9.93;;;7.32;;
5247;SDS011;2644;52.420;13.580;2022-09-25T03:42:51;12.48;;;8.65;;
5247;SDS011;2644;52.420;13.580;2022-09-25T03:43:57;14.15;;;8.05;;
5247;SDS011;2644;52.420;13.580;2022-09-25T03:45:01;9.82;;;6.70;;
5247;SDS011;2644;52.420;13.580;2022-09-25T03:46:03;12.02;;;7.85;;
5247;SDS011;2644;52.420;13.580;2022-09-25T03:47:08;12.32;;;7.90;;
5247;SDS011;2644;52.420;13.580;2022-09-25T03:48:11;13.05;;;7.95;;
5247;SDS011;2644;52.420;13.580;2022-09-25T03:49:14;10.52;;;6.93;;
5247;SDS011;2644;52.420;13.580;2022-09-25T03:50:16;10.98;;;7.78;;
5247;SDS011;2644;52.420;13.580;2022-09-25T03:51:19;11.13;;;7.97;;
5247;SDS011;2644;52.420;13.580;2022-09-25T03:52:22;10.23;;;7.72;;
5247;SDS011;2644;52.420;13.580;2022-09-25T03:53:25;12.75;;;8.20;;
5247;SDS011;2644;52.420;13.580;2022-09-25T03:54:28;11.38;;;7.70;;
5247;SDS011;2644;52.420;13.580;2022-09-25T03:55:31;11.70;;;7.97;;
5247;SDS011;2644;52.420;13.580;2022-09-25T03:56:33;10.75;;;7.43;;
5247;SDS011;2644;52.420;13.580;2022-09-25T03:57:36;13.82;;;7.57;;
5247;SDS011;2644;52.420;13.580;2022-09-25T03:58:39;10.80;;;7.93;;
5247;SDS011;2644;52.420;13.580;2022-09-25T03:59:42;12.90;;;7.70;;
5247;SDS011;2644;52.420;13.580;2022-09-25T04:00:44;11.18;;;8.27;;
5247;SDS011;2644;52.420;13.580;2022-09-25T04:01:48;10.95;;;7.90;;
5247;SDS011;2644;52.420;13.580;2022-09-25T04:02:50;14.90;;;8.00;;
5247;SDS011;2644;52.420;13.580;2022-09-25T04:03:54;10.38;;;8.07;;
5247;SDS011;2644;52.420;13.580;2022-09-25T04:04:57;12.68;;;8.30;;
5247;SDS011;2644;52.420;13.580;2022-09-25T04:06:01;11.75;;;7.90;;
5247;SDS011;2644;52.420;13.580;2022-09-25T04:07:06;9.93;;;7.43;;
5247;SDS011;2644;52.420;13.580;2022-09-25T04:08:09;11.57;;;7.72;;
5247;SDS011;2644;52.420;13.580;2022-09-25T04:09:12;14.90;;;8.52;;
5247;SDS011;2644;52.420;13.580;2022-09-25T04:10:15;11.60;;;8.25;;
5247;SDS011;2644;52.420;13.580;2022-09-25T04:11:17;11.35;;;7.93;;
5247;SDS011;2644;52.420;13.580;2022-09-25T04:12:22;11.10;;;7.95;;
5247;SDS011;2644;52.420;13.580;2022-09-25T04:13:25;11.30;;;8.25;;
5247;SDS011;2644;52.420;13.580;2022-09-25T04:14:30;10.65;;;7.80;;
5247;SDS011;2644;52.420;13.580;2022-09-25T04:15:32;11.73;;;8.15;;
5247;SDS011;2644;52.420;13.580;2022-09-25T04:16:35;11.88;;;8.02;;
5247;SDS011;2644;52.420;13.580;2022-09-25T04:17:38;12.07;;;8.13;;
5247;SDS011;2644;52.420;13.580;2022-09-25T04:18:41;13.40;;;9.30;;
5247;SDS011;2644;52.420;13.580;2022-09-25T04:19:44;13.30;;;8.23;;
5247;SDS011;2644;52.420;13.580;2022-09-25T04:20:48;10.80;;;7.75;;
5247;SDS011;2644;52.420;13.580;2022-09-25T04:21:50;11.75;;;8.07;;
5247;SDS011;2644;52.420;13.580;2022-09-25T04:22:53;11.98;;;7.97;;
5247;SDS011;2644;52.420;13.580;2022-09-25T04:23:55;14.82;;;8.48;;
5247;SDS011;2644;52.420;13.580;2022-09-25T04:25:16;11.20;;;7.85;;
5247;SDS011;2644;52.420;13.580;2022-09-25T04:26:25;12.35;;;8.20;;
5247;SDS011;2644;52.420;13.580;2022-09-25T04:27:27;18.60;;;8.10;;
5247;SDS011;2644;52.420;13.580;2022-09-25T04:28:30;10.13;;;7.80;;
5247;SDS011;2644;52.420;13.580;2022-09-25T04:29:33;16.48;;;8.50;;
5247;SDS011;2644;52.420;13.580;2022-09-25T04:30:36;12.20;;;7.85;;
5247;SDS011;2644;52.420;13.580;2022-09-25T04:31:38;12.25;;;8.30;;
5247;SDS011;2644;52.420;13.580;2022-09-25T04:32:41;14.43;;;8.80;;
5247;SDS011;2644;52.420;13.580;2022-09-25T04:34:02;11.85;;;8.20;;
5247;SDS011;2644;52.420;13.580;2022-09-25T04:35:06;11.32;;;7.70;;
5247;SDS011;2644;52.420;13.580;2022-09-25T04:36:08;12.60;;;8.10;;
5247;SDS011;2644;52.420;13.580;2022-09-25T04:37:11;14.77;;;8.60;;
5247;SDS011;2644;52.420;13.580;2022-09-25T04:38:14;15.45;;;9.18;;
5247;SDS011;2644;52.420;13.580;2022-09-25T04:39:17;12.60;;;8.43;;
5247;SDS011;2644;52.420;13.580;2022-09-25T04:40:20;20.88;;;8.95;;
5247;SDS011;2644;52.420;13.580;2022-09-25T04:41:24;13.90;;;9.35;;
5247;SDS011;2644;52.420;13.580;2022-09-25T04:42:26;11.25;;;8.10;;
5247;SDS011;2644;52.420;13.580;2022-09-25T04:43:29;11.27;;;8.20;;
5247;SDS011;2644;52.420;13.580;2022-09-25T04:44:32;10.45;;;8.18;;
5247;SDS011;2644;52.420;13.580;2022-09-25T04:45:34;13.05;;;8.80;;
5247;SDS011;2644;52.420;13.580;2022-09-25T04:46:37;11.88;;;8.43;;
5247;SDS011;2644;52.420;13.580;2022-09-25T04:47:40;12.00;;;8.65;;
5247;SDS011;2644;52.420;13.580;2022-09-25T04:48:43;14.80;;;9.05;;
5247;SDS011;2644;52.420;13.580;2022-09-25T04:49:47;12.65;;;8.60;;
5247;SDS011;2644;52.420;13.580;2022-09-25T04:50:50;13.48;;;8.55;;
5247;SDS011;2644;52.420;13.580;2022-09-25T04:51:54;13.05;;;8.80;;
5247;SDS011;2644;52.420;13.580;2022-09-25T04:52:57;11.90;;;8.20;;
5247;SDS011;2644;52.420;13.580;2022-09-25T04:54:01;12.38;;;8.55;;
5247;SDS011;2644;52.420;13.580;2022-09-25T04:55:03;12.20;;;8.52;;
5247;SDS011;2644;52.420;13.580;2022-09-25T04:56:07;13.30;;;8.85;;
5247;SDS011;2644;52.420;13.580;2022-09-25T04:57:17;13.35;;;8.90;;
5247;SDS011;2644;52.420;13.580;2022-09-25T04:58:42;15.02;;;9.23;;
5247;SDS011;2644;52.420;13.580;2022-09-25T04:59:46;13.00;;;8.88;;
5247;SDS011;2644;52.420;13.580;2022-09-25T05:00:49;13.00;;;8.60;;
5247;SDS011;2644;52.420;13.580;2022-09-25T05:01:54;13.93;;;8.90;;
5247;SDS011;2644;52.420;13.580;2022-09-25T05:02:57;12.45;;;8.75;;
5247;SDS011;2644;52.420;13.580;2022-09-25T05:04:00;12.80;;;8.60;;
5247;SDS011;2644;52.420;13.580;2022-09-25T05:05:08;11.55;;;8.38;;
5247;SDS011;2644;52.420;13.580;2022-09-25T05:06:13;16.08;;;8.70;;
5247;SDS011;2644;52.420;13.580;2022-09-25T05:07:15;14.48;;;8.68;;
5247;SDS011;2644;52.420;13.580;2022-09-25T05:08:18;13.10;;;9.00;;
5247;SDS011;2644;52.420;13.580;2022-09-25T05:09:20;11.02;;;8.63;;
5247;SDS011;2644;52.420;13.580;2022-09-25T05:10:24;13.80;;;8.75;;
5247;SDS011;2644;52.420;13.580;2022-09-25T05:11:28;12.27;;;8.48;;
5247;SDS011;2644;52.420;13.580;2022-09-25T05:12:31;13.65;;;9.20;;
5247;SDS011;2644;52.420;13.580;2022-09-25T05:13:33;13.35;;;8.90;;
5247;SDS011;2644;52.420;13.580;2022-09-25T05:14:36;12.93;;;9.00;;
5247;SDS011;2644;52.420;13.580;2022-09-25T05:15:41;14.07;;;9.43;;
5247;SDS011;2644;52.420;13.580;2022-09-25T05:16:44;14.30;;;9.15;;
5247;SDS011;2644;52.420;13.580;2022-09-25T05:17:46;16.38;;;9.02;;
5247;SDS011;2644;52.420;13.580;2022-09-25T05:18:49;14.57;;;8.77;;
5247;SDS011;2644;52.420;13.580;2022-09-25T05:20:08;15.20;;;8.90;;
5247;SDS011;2644;52.420;13.580;2022-09-25T05:21:13;14.52;;;9.52;;
5247;SDS011;2644;52.420;13.580;2022-09-25T05:22:16;13.70;;;9.15;;
5247;SDS011;2644;52.420;13.580;2022-09-25T05:23:19;14.98;;;9.27;;
5247;SDS011;2644;52.420;13.580;2022-09-25T05:24:22;13.88;;;9.10;;
5247;SDS011;2644;52.420;13.580;2022-09-25T05:25:24;13.52;;;9.32;;
5247;SDS011;2644;52.420;13.580;2022-09-25T05:26:28;17.02;;;9.90;;
5247;SDS011;2644;52.420;13.580;2022-09-25T05:27:31;13.77;;;9.35;;
5247;SDS011;2644;52.420;13.580;2022-09-25T05:28:34;15.25;;;9.88;;
5247;SDS011;2644;52.420;13.580;2022-09-25T05:29:36;15.00;;;9.43;;
5247;SDS011;2644;52.420;13.580;2022-09-25T05:30:39;13.90;;;9.68;;
5247;SDS011;2644;52.420;13.580;2022-09-25T05:31:41;15.68;;;10.60;;
5247;SDS011;2644;52.420;13.580;2022-09-25T05:32:47;14.73;;;10.07;;
5247;SDS011;2644;52.420;13.580;2022-09-25T05:33:49;17.15;;;10.65;;
5247;SDS011;2644;52.420;13.580;2022-09-25T05:34:54;17.77;;;10.70;;
5247;SDS011;2644;52.420;13.580;2022-09-25T05:35:58;17.40;;;10.57;;
5247;SDS011;2644;52.420;13.580;2022-09-25T05:37:03;16.27;;;10.20;;
5247;SDS011;2644;52.420;13.580;2022-09-25T05:38:06;16.38;;;9.85;;
5247;SDS011;2644;52.420;13.580;2022-09-25T05:39:09;16.00;;;9.90;;
5247;SDS011;2644;52.420;13.580;2022-09-25T05:40:15;15.30;;;9.52;;
5247;SDS011;2644;52.420;13.580;2022-09-25T05:41:21;16.50;;;10.13;;
5247;SDS011;2644;52.420;13.580;2022-09-25T05:42:28;16.48;;;10.15;;
5247;SDS011;2644;52.420;13.580;2022-09-25T05:43:33;17.27;;;10.00;;
5247;SDS011;2644;52.420;13.580;2022-09-25T05:44:39;17.65;;;10.32;;
5247;SDS011;2644;52.420;13.580;2022-09-25T05:45:42;16.75;;;10.43;;
5247;SDS011;2644;52.420;13.580;2022-09-25T05:46:45;14.77;;;10.20;;
5247;SDS011;2644;52.420;13.580;2022-09-25T05:47:47;16.90;;;8.65;;
5247;SDS011;2644;52.420;13.580;2022-09-25T05:48:50;17.58;;;9.88;;
5247;SDS011;2644;52.420;13.580;2022-09-25T05:49:52;16.45;;;9.95;;
5247;SDS011;2644;52.420;13.580;2022-09-25T05:50:55;16.30;;;10.18;;
5247;SDS011;2644;52.420;13.580;2022-09-25T05:51:58;14.52;;;9.93;;
5247;SDS011;2644;52.420;13.580;2022-09-25T05:53:03;16.55;;;10.48;;
5247;SDS011;2644;52.420;13.580;2022-09-25T05:54:07;18.35;;;10.25;;
5247;SDS011;2644;52.420;13.580;2022-09-25T05:55:09;15.82;;;9.95;;
5247;SDS011;2644;52.420;13.580;2022-09-25T05:56:12;14.35;;;9.45;;
5247;SDS011;2644;52.420;13.580;2022-09-25T05:57:14;14.98;;;9.65;;
5247;SDS011;2644;52.420;13.580;2022-09-25T05:58:17;17.65;;;9.63;;
5247;SDS011;2644;52.420;13.580;2022-09-25T05:59:19;16.20;;;9.52;;
5247;SDS011;2644;52.420;13.580;2022-09-25T06:00:22;13.18;;;9.10;;
5247;SDS011;2644;52.420;13.580;2022-09-25T06:01:24;13.63;;;9.35;;
5247;SDS011;2644;52.420;13.580;2022-09-25T06:02:27;13.77;;;9.00;;
5247;SDS011;2644;52.420;13.580;2022-09-25T06:03:30;15.27;;;9.10;;
5247;SDS011;2644;52.420;13.580;2022-09-25T06:04:33;12.60;;;8.65;;
5247;SDS011;2644;52.420;13.580;2022-09-25T06:05:35;17.17;;;10.43;;
5247;SDS011;2644;52.420;13.580;2022-09-25T06:06:38;15.63;;;10.40;;
5247;SDS011;2644;52.420;13.580;2022-09-25T06:07:41;13.68;;;9.23;;
5247;SDS011;2644;52.420;13.580;2022-09-25T06:08:44;14.75;;;10.23;;
5247;SDS011;2644;52.420;13.580;2022-09-25T06:09:47;20.83;;;10.27;;
5247;SDS011;2644;52.420;13.580;2022-09-25T06:10:50;15.90;;;9.10;;
5247;SDS011;2644;52.420;13.580;2022-09-25T06:11:55;14.82;;;9.63;;
5247;SDS011;2644;52.420;13.580;2022-09-25T06:12:57;14.40;;;9.60;;
5247;SDS011;2644;52.420;13.580;2022-09-25T06:14:01;18.52;;;10.77;;
5247;SDS011;2644;52.420;13.580;2022-09-25T06:15:04;14.52;;;9.63;;
5247;SDS011;2644;52.420;13.580;2022-09-25T06:16:11;15.23;;;10.02;;
5247;SDS011;2644;52.420;13.580;2022-09-25T06:17:17;18.60;;;10.15;;
5247;SDS011;2644;52.420;13.580;2022-09-25T06:18:21;18.98;;;9.98;;
5247;SDS011;2644;52.420;13.580;2022-09-25T06:19:25;15.07;;;8.90;;
5247;SDS011;2644;52.420;13.580;2022-09-25T06:20:29;18.50;;;10.23;;
5247;SDS011;2644;52.420;13.580;2022-09-25T06:21:33;14.32;;;9.52;;
5247;SDS011;2644;52.420;13.580;2022-09-25T06:22:35;16.00;;;9.23;;
5247;SDS011;2644;52.420;13.580;2022-09-25T06:23:40;11.18;;;8.45;;
5247;SDS011;2644;52.420;13.580;2022-09-25T06:24:46;15.35;;;9.65;;
5247;SDS011;2644;52.420;13.580;2022-09-25T06:25:49;14.27;;;9.68;;
5247;SDS011;2644;52.420;13.580;2022-09-25T06:26:52;16.13;;;9.50;;
5247;SDS011;2644;52.420;13.580;2022-09-25T06:27:54;13.95;;;9.32;;
5247;SDS011;2644;52.420;13.580;2022-09-25T06:29:00;15.05;;;10.52;;
5247;SDS011;2644;52.420;13.580;2022-09-25T06:30:04;15.80;;;9.95;;
5247;SDS011;2644;52.420;13.580;2022-09-25T06:31:07;13.57;;;9.20;;
5247;SDS011;2644;52.420;13.580;2022-09-25T06:32:10;16.52;;;9.32;;
5247;SDS011;2644;52.420;13.580;2022-09-25T06:33:12;15.35;;;9.45;;
5247;SDS011;2644;52.420;13.580;2022-09-25T06:34:16;14.18;;;10.25;;
5247;SDS011;2644;52.420;13.580;2022-09-25T06:35:18;15.40;;;9.30;;
5247;SDS011;2644;52.420;13.580;2022-09-25T06:36:21;16.17;;;10.20;;
5247;SDS011;2644;52.420;13.580;2022-09-25T06:37:23;14.38;;;9.73;;